Terminal Aerodrome Forecast
Issued by NWS

Home | Current Version | Previous Version | Text Only | Print | Product List | Glossary On
Versions: 1 2 3 4 5 6 7 8 9 10 11 12 13 14 15
000
FTUS46 KSEW 311700
TAFHQM
TAF
KHQM 311732Z 3118/0118 17006KT P6SM VCSH OVC060
      TEMPO 3118/3121 5SM -SHRA BR BKN025 OVC050
     FM312100 20002KT P6SM VCSH BKN050
     FM011500 00000KT P6SM SCT250=

USA.gov is the U.S. government's official web portal to all federal, state and local government web resources and services.